Wetterdaten: aktuell Sonntag, 12.07.2020 09:35
Datum Zeit Temp. A. Temp. A. min Temp. A. max Feuchte A. Luftdruck Regen Wind Richtung Richtung Sonnenschein UV Solar Windben
12.07.2020 09:35 16,9 C 16,8 C 16,9 C 68 % 1029,2 hPa 0,0 l/m 4,8 km/h (1 Bft) NO 45 5 min 2,5 UV-I 489 W/m 8,0 km/h (2 Bft)
12.07.2020 09:30 16,8 C 16,8 C 16,8 C 69 % 1029,2 hPa 0,0 l/m 6,4 km/h (2 Bft) N 360 5 min 2,5 UV-I 471 W/m 12,9 km/h (3 Bft)
12.07.2020 09:25 16,8 C 16,7 C 16,8 C 70 % 1029,1 hPa 0,0 l/m 3,2 km/h (1 Bft) O-NO 67 5 min 2,3 UV-I 452 W/m 8,0 km/h (2 Bft)
12.07.2020 09:20 16,7 C 16,4 C 16,7 C 71 % 1029,1 hPa 0,0 l/m 3,2 km/h (1 Bft) NO 45 5 min 2,2 UV-I 439 W/m 8,0 km/h (2 Bft)
12.07.2020 09:15 16,4 C 16,2 C 16,4 C 74 % 1029,1 hPa 0,0 l/m 1,6 km/h (1 Bft) NO 45 5 min 2,1 UV-I 431 W/m 4,8 km/h (1 Bft)
12.07.2020 09:10 16,2 C 15,9 C 16,2 C 75 % 1029,0 hPa 0,0 l/m 1,6 km/h (1 Bft) O-NO 67 5 min 2,0 UV-I 413 W/m 4,8 km/h (1 Bft)
12.07.2020 09:05 16,0 C 15,9 C 16,0 C 74 % 1029,0 hPa 0,0 l/m 4,8 km/h (1 Bft) NW 315 5 min 1,9 UV-I 404 W/m 8,0 km/h (2 Bft)
12.07.2020 09:00 15,9 C 15,8 C 15,9 C 75 % 1028,9 hPa 0,0 l/m 3,2 km/h (1 Bft) N-NW 337 5 min 1,8 UV-I 376 W/m 6,4 km/h (2 Bft)
12.07.2020 08:55 15,8 C 15,6 C 15,8 C 76 % 1028,9 hPa 0,0 l/m 3,2 km/h (1 Bft) NO 45 5 min 1,7 UV-I 359 W/m 11,3 km/h (2 Bft)
12.07.2020 08:50 15,6 C 15,5 C 15,6 C 77 % 1028,9 hPa 0,0 l/m 4,8 km/h (1 Bft) NW 315 5 min 1,6 UV-I 353 W/m 9,7 km/h (2 Bft)
12.07.2020 08:45 15,5 C 15,2 C 15,5 C 79 % 1028,9 hPa 0,0 l/m 3,2 km/h (1 Bft) O-NO 67 5 min 1,6 UV-I 345 W/m 6,4 km/h (2 Bft)
12.07.2020 08:40 15,2 C 15,0 C 15,2 C 80 % 1028,9 hPa 0,0 l/m 4,8 km/h (1 Bft) N-NO 22 5 min 1,5 UV-I 332 W/m 11,3 km/h (2 Bft)
12.07.2020 08:35 15,0 C 14,8 C 15,0 C 81 % 1028,8 hPa 0,0 l/m 3,2 km/h (1 Bft) N-NO 22 5 min 1,4 UV-I 318 W/m 6,4 km/h (2 Bft)
12.07.2020 08:30 14,8 C 14,7 C 14,8 C 80 % 1028,8 hPa 0,0 l/m 3,2 km/h (1 Bft) N-NO 22 5 min 1,3 UV-I 309 W/m 11,3 km/h (2 Bft)
12.07.2020 08:25 14,7 C 14,6 C 14,7 C 81 % 1028,7 hPa 0,0 l/m 3,2 km/h (1 Bft) N-NO 22 5 min 1,3 UV-I 295 W/m 8,0 km/h (2 Bft)
12.07.2020 08:20 14,6 C 14,4 C 14,6 C 83 % 1028,8 hPa 0,0 l/m 3,2 km/h (1 Bft) N 360 5 min 1,2 UV-I 278 W/m 8,0 km/h (2 Bft)
12.07.2020 08:15 14,4 C 14,3 C 14,4 C 82 % 1028,6 hPa 0,0 l/m 1,6 km/h (1 Bft) O-NO 67 5 min 1,2 UV-I 264 W/m 4,8 km/h (1 Bft)
12.07.2020 08:10 14,3 C 14,2 C 14,3 C 82 % 1028,5 hPa 0,0 l/m 4,8 km/h (1 Bft) N-NO 22 5 min 1,1 UV-I 237 W/m 9,7 km/h (2 Bft)
12.07.2020 08:05 14,2 C 14,1 C 14,2 C 83 % 1028,5 hPa 0,0 l/m 4,8 km/h (1 Bft) N-NO 22 5 min 1,0 UV-I 204 W/m 11,3 km/h (2 Bft)
12.07.2020 08:00 14,1 C 13,8 C 14,1 C 84 % 1028,4 hPa 0,0 l/m 3,2 km/h (1 Bft) N-NO 22 0 min 0,9 UV-I 163 W/m 6,4 km/h (2 Bft)
12.07.2020 07:55 13,8 C 13,5 C 13,8 C 86 % 1028,4 hPa 0,0 l/m 3,2 km/h (1 Bft) O-NO 67 0 min 0,9 UV-I 148 W/m 6,4 km/h (2 Bft)
12.07.2020 07:50 13,5 C 13,3 C 13,5 C 86 % 1028,4 hPa 0,0 l/m 4,8 km/h (1 Bft) NO 45 0 min 0,8 UV-I 139 W/m 8,0 km/h (2 Bft)
12.07.2020 07:45 13,3 C 13,1 C 13,3 C 87 % 1028,4 hPa 0,0 l/m 1,6 km/h (1 Bft) N-NO 22 0 min 0,7 UV-I 137 W/m 4,8 km/h (1 Bft)
12.07.2020 07:40 13,1 C 12,9 C 13,1 C 87 % 1028,3 hPa 0,0 l/m 1,6 km/h (1 Bft) N-NO 22 0 min 0,7 UV-I 137 W/m 6,4 km/h (2 Bft)
12.07.2020 07:35 12,9 C 12,8 C 12,9 C 87 % 1028,3 hPa 0,0 l/m 1,6 km/h (1 Bft) N-NO 22 0 min 0,6 UV-I 134 W/m 4,8 km/h (1 Bft)
12.07.2020 07:30 12,8 C 12,7 C 12,8 C 88 % 1028,1 hPa 0,0 l/m 1,6 km/h (1 Bft) N-NO 22 0 min 0,6 UV-I 120 W/m 3,2 km/h (1 Bft)
12.07.2020 07:25 12,7 C 12,6 C 12,7 C 88 % 1028,1 hPa 0,0 l/m 1,6 km/h (1 Bft) N-NO 22 0 min 0,5 UV-I 111 W/m 4,8 km/h (1 Bft)
12.07.2020 07:20 12,5 C 12,4 C 12,6 C 89 % 1028,1 hPa 0,0 l/m 0,0 km/h (0 Bft) N-NO 22 0 min 0,0 UV-I 98 W/m 3,2 km/h (1 Bft)
12.07.2020 07:15 12,4 C 12,3 C 12,4 C 89 % 1028,1 hPa 0,0 l/m 1,6 km/h (1 Bft) N-NO 22 0 min 0,0 UV-I 90 W/m 4,8 km/h (1 Bft)
12.07.2020 07:10 12,3 C 12,2 C 12,3 C 89 % 1028,0 hPa 0,0 l/m 1,6 km/h (1 Bft) N-NO 22 0 min 0,0 UV-I 76 W/m 4,8 km/h (1 Bft)
12.07.2020 07:05 12,2 C 12,1 C 12,2 C 90 % 1027,9 hPa 0,0 l/m 1,6 km/h (1 Bft) N-NO 22 0 min 0,0 UV-I 84 W/m 4,8 km/h (1 Bft)
12.07.2020 07:00 12,0 C 11,9 C 12,1 C 90 % 1028,0 hPa 0,0 l/m 1,6 km/h (1 Bft) N-NO 22 0 min 0,0 UV-I 91 W/m 4,8 km/h (1 Bft)
12.07.2020 06:55 11,9 C 11,8 C 11,9 C 90 % 1028,0 hPa 0,0 l/m 1,6 km/h (1 Bft) N-NO 22 0 min 0,0 UV-I 58 W/m 3,2 km/h (1 Bft)
12.07.2020 06:50 11,8 C 11,6 C 11,8 C 90 % 1028,0 hPa 0,0 l/m 1,6 km/h (1 Bft) N-NO 22 0 min 0,0 UV-I 72 W/m 4,8 km/h (1 Bft)
12.07.2020 06:45 11,6 C 11,5 C 11,6 C 91 % 1027,9 hPa 0,0 l/m 3,2 km/h (1 Bft) N-NO 22 0 min 0,0 UV-I 56 W/m 6,4 km/h (2 Bft)
12.07.2020 06:40 11,5 C 11,3 C 11,5 C 91 % 1028,0 hPa 0,0 l/m 3,2 km/h (1 Bft) N-NO 22 0 min 0,0 UV-I 58 W/m 4,8 km/h (1 Bft)
12.07.2020 06:35 11,3 C 11,2 C 11,3 C 91 % 1027,9 hPa 0,0 l/m 1,6 km/h (1 Bft) N-NO 22 0 min 0,0 UV-I 54 W/m 4,8 km/h (1 Bft)
12.07.2020 06:30 11,2 C 11,1 C 11,2 C 91 % 1027,9 hPa 0,0 l/m 1,6 km/h (1 Bft) N-NO 22 0 min 0,0 UV-I 47 W/m 6,4 km/h (2 Bft)
12.07.2020 06:25 11,1 C 11,0 C 11,1 C 91 % 1027,9 hPa 0,0 l/m 0,0 km/h (0 Bft) N 0 0 min 0,0 UV-I 33 W/m 0,0 km/h (0 Bft)
12.07.2020 06:20 11,0 C 10,8 C 11,0 C 91 % 1027,9 hPa 0,0 l/m 0,0 km/h (0 Bft) NO 45 0 min 0,0 UV-I 26 W/m 3,2 km/h (1 Bft)
12.07.2020 06:15 10,8 C 10,8 C 10,8 C 90 % 1028,0 hPa 0,0 l/m 0,0 km/h (0 Bft) N-NO 22 0 min 0,0 UV-I 21 W/m 3,2 km/h (1 Bft)
12.07.2020 06:10 10,8 C 10,7 C 10,8 C 90 % 1027,9 hPa 0,0 l/m 0,0 km/h (0 Bft) N 0 0 min 0,0 UV-I 18 W/m 0,0 km/h (0 Bft)
12.07.2020 06:05 10,8 C 10,7 C 10,8 C 89 % 1027,9 hPa 0,0 l/m 0,0 km/h (0 Bft) N 360 0 min 0,0 UV-I 14 W/m 3,2 km/h (1 Bft)
12.07.2020 06:00 10,8 C 10,8 C 10,8 C 89 % 1027,8 hPa 0,0 l/m 0,0 km/h (0 Bft) N-NO 22 0 min 0,0 UV-I 11 W/m 1,6 km/h (1 Bft)
12.07.2020 05:55 10,8 C 10,7 C 10,8 C 89 % 1027,8 hPa 0,0 l/m 0,0 km/h (0 Bft) N 0 0 min 0,0 UV-I 7 W/m 0,0 km/h (0 Bft)
12.07.2020 05:50 10,8 C 10,7 C 10,8 C 89 % 1027,7 hPa 0,0 l/m 0,0 km/h (0 Bft) N 0 0 min 0,0 UV-I 7 W/m 0,0 km/h (0 Bft)
12.07.2020 05:45 10,8 C 10,8 C 10,8 C 88 % 1027,7 hPa 0,0 l/m 0,0 km/h (0 Bft) N-NO 22 0 min 0,0 UV-I 5 W/m 1,6 km/h (1 Bft)
12.07.2020 05:40 10,8 C 10,8 C 10,8 C 88 % 1027,7 hPa 0,0 l/m 1,6 km/h (1 Bft) N-NO 22 0 min 0,0 UV-I 0 W/m 4,8 km/h (1 Bft)
12.07.2020 05:35 10,8 C 10,8 C 10,9 C 88 % 1027,7 hPa 0,0 l/m 0,0 km/h (0 Bft) N-NO 22 0 min 0,0 UV-I 0 W/m 3,2 km/h (1 Bft)
12.07.2020 05:30 10,9 C 10,8 C 10,9 C 88 % 1027,6 hPa 0,0 l/m 0,0 km/h (0 Bft) N 0 0 min 0,0 UV-I 0 W/m 0,0 km/h (0 Bft)
12.07.2020 05:25 10,9 C 10,9 C 11,0 C 87 % 1027,6 hPa 0,0 l/m 0,0 km/h (0 Bft) N 0 0 min 0,0 UV-I 0 W/m 0,0 km/h (0 Bft)
12.07.2020 05:20 11,0 C 10,9 C 11,1 C 87 % 1027,6 hPa 0,0 l/m 0,0 km/h (0 Bft) N 0 0 min 0,0 UV-I 0 W/m 0,0 km/h (0 Bft)
12.07.2020 05:15 11,1 C 11,1 C 11,3 C 87 % 1027,6 hPa 0,0 l/m 0,0 km/h (0 Bft) N 0 0 min 0,0 UV-I 0 W/m 0,0 km/h (0 Bft)
12.07.2020 05:10 11,3 C 11,3 C 11,4 C 87 % 1027,6 hPa 0,0 l/m 0,0 km/h (0 Bft) N 0 0 min 0,0 UV-I 0 W/m 0,0 km/h (0 Bft)
12.07.2020 05:05 11,4 C 11,4 C 11,5 C 87 % 1027,6 hPa 0,0 l/m 0,0 km/h (0 Bft) N 0 0 min 0,0 UV-I 0 W/m 0,0 km/h (0 Bft)
12.07.2020 05:00 11,5 C 11,4 C 11,6 C 87 % 1027,6 hPa 0,0 l/m 0,0 km/h (0 Bft) N 0 0 min 0,0 UV-I 0 W/m 0,0 km/h (0 Bft)
12.07.2020 04:55 11,6 C 11,6 C 11,7 C 87 % 1027,5 hPa 0,0 l/m 0,0 km/h (0 Bft) N 0 0 min 0,0 UV-I 0 W/m 0,0 km/h (0 Bft)
12.07.2020 04:50 11,7 C 11,7 C 11,8 C 87 % 1027,5 hPa 0,0 l/m 0,0 km/h (0 Bft) N 0 0 min 0,0 UV-I 0 W/m 0,0 km/h (0 Bft)
12.07.2020 04:45 11,7 C 11,7 C 11,8 C 87 % 1027,6 hPa 0,0 l/m 0,0 km/h (0 Bft) N 0 0 min 0,0 UV-I 0 W/m 0,0 km/h (0 Bft)
12.07.2020 04:40 11,8 C 11,7 C 11,8 C 87 % 1027,5 hPa 0,0 l/m 0,0 km/h (0 Bft) N 0 0 min 0,0 UV-I 0 W/m 0,0 km/h (0 Bft)
12.07.2020 04:35 11,8 C 11,8 C 11,9 C 87 % 1027,6 hPa 0,0 l/m 0,0 km/h (0 Bft) N 0 0 min 0,0 UV-I 0 W/m 0,0 km/h (0 Bft)
12.07.2020 04:30 11,9 C 11,9 C 11,9 C 87 % 1027,6 hPa 0,0 l/m 0,0 km/h (0 Bft) N 0 0 min 0,0 UV-I 0 W/m 0,0 km/h (0 Bft)
12.07.2020 04:25 11,9 C 11,9 C 12,0 C 87 % 1027,5 hPa 0,0 l/m 0,0 km/h (0 Bft) N 0 0 min 0,0 UV-I 0 W/m 0,0 km/h (0 Bft)
12.07.2020 04:20 12,0 C 12,0 C 12,1 C 86 % 1027,6 hPa 0,0 l/m 1,6 km/h (1 Bft) N-NO 22 0 min 0,0 UV-I 0 W/m 3,2 km/h (1 Bft)
12.07.2020 04:15 12,1 C 12,0 C 12,1 C 86 % 1027,6 hPa 0,0 l/m 0,0 km/h (0 Bft) N-NO 22 0 min 0,0 UV-I 0 W/m 3,2 km/h (1 Bft)
12.07.2020 04:10 12,0 C 12,0 C 12,1 C 86 % 1027,5 hPa 0,0 l/m 0,0 km/h (0 Bft) N 0 0 min 0,0 UV-I 0 W/m 0,0 km/h (0 Bft)
12.07.2020 04:05 12,1 C 12,1 C 12,1 C 86 % 1027,5 hPa 0,0 l/m 0,0 km/h (0 Bft) N-NO 22 0 min 0,0 UV-I 0 W/m 3,2 km/h (1 Bft)
12.07.2020 04:00 12,1 C 12,1 C 12,2 C 86 % 1027,6 hPa 0,0 l/m 1,6 km/h (1 Bft) N-NO 22 0 min 0,0 UV-I 0 W/m 4,8 km/h (1 Bft)
12.07.2020 03:55 12,2 C 12,2 C 12,2 C 85 % 1027,5 hPa 0,0 l/m 0,0 km/h (0 Bft) N 0 0 min 0,0 UV-I 0 W/m 0,0 km/h (0 Bft)
12.07.2020 03:50 12,2 C 12,2 C 12,2 C 85 % 1027,5 hPa 0,0 l/m 0,0 km/h (0 Bft) N-NO 22 0 min 0,0 UV-I 0 W/m 1,6 km/h (1 Bft)
12.07.2020 03:45 12,2 C 12,2 C 12,3 C 85 % 1027,5 hPa 0,0 l/m 0,0 km/h (0 Bft) N 0 0 min 0,0 UV-I 0 W/m 0,0 km/h (0 Bft)
12.07.2020 03:40 12,3 C 12,2 C 12,3 C 85 % 1027,5 hPa 0,0 l/m 1,6 km/h (1 Bft) N-NO 22 0 min 0,0 UV-I 0 W/m 3,2 km/h (1 Bft)
12.07.2020 03:35 12,3 C 12,2 C 12,3 C 85 % 1027,6 hPa 0,0 l/m 3,2 km/h (1 Bft) N-NO 22 0 min 0,0 UV-I 0 W/m 6,4 km/h (2 Bft)
12.07.2020 03:30 12,2 C 12,2 C 12,2 C 85 % 1027,6 hPa 0,0 l/m 3,2 km/h (1 Bft) N-NO 22 0 min 0,0 UV-I 0 W/m 4,8 km/h (1 Bft)
12.07.2020 03:25 12,2 C 12,2 C 12,2 C 85 % 1027,6 hPa 0,0 l/m 3,2 km/h (1 Bft) NO 45 0 min 0,0 UV-I 0 W/m 6,4 km/h (2 Bft)
12.07.2020 03:20 12,2 C 12,2 C 12,3 C 84 % 1027,7 hPa 0,0 l/m 3,2 km/h (1 Bft) N-NO 22 0 min 0,0 UV-I 0 W/m 6,4 km/h (2 Bft)
12.07.2020 03:15 12,3 C 12,2 C 12,3 C 84 % 1027,6 hPa 0,0 l/m 1,6 km/h (1 Bft) N-NO 22 0 min 0,0 UV-I 0 W/m 3,2 km/h (1 Bft)
12.07.2020 03:10 12,3 C 12,3 C 12,4 C 84 % 1027,6 hPa 0,0 l/m 0,0 km/h (0 Bft) N-NO 22 0 min 0,0 UV-I 0 W/m 4,8 km/h (1 Bft)
12.07.2020 03:05 12,4 C 12,4 C 12,6 C 84 % 1027,7 hPa 0,0 l/m 0,0 km/h (0 Bft) N 0 0 min 0,0 UV-I 0 W/m 0,0 km/h (0 Bft)
12.07.2020 03:00 12,5 C 12,5 C 12,6 C 84 % 1027,7 hPa 0,0 l/m 0,0 km/h (0 Bft) N 0 0 min 0,0 UV-I 0 W/m 0,0 km/h (0 Bft)
12.07.2020 02:55 12,6 C 12,6 C 12,6 C 84 % 1027,6 hPa 0,0 l/m 1,6 km/h (1 Bft) N-NO 22 0 min 0,0 UV-I 0 W/m 4,8 km/h (1 Bft)
12.07.2020 02:50 12,6 C 12,6 C 12,7 C 84 % 1027,7 hPa 0,0 l/m 1,6 km/h (1 Bft) NO 45 0 min 0,0 UV-I 0 W/m 4,8 km/h (1 Bft)
12.07.2020 02:45 12,7 C 12,7 C 12,7 C 83 % 1027,6 hPa 0,0 l/m 0,0 km/h (0 Bft) N 0 0 min 0,0 UV-I 0 W/m 0,0 km/h (0 Bft)
12.07.2020 02:40 12,7 C 12,6 C 12,7 C 84 % 1027,6 hPa 0,0 l/m 0,0 km/h (0 Bft) NO 45 0 min 0,0 UV-I 0 W/m 3,2 km/h (1 Bft)
12.07.2020 02:35 12,6 C 12,5 C 12,6 C 84 % 1027,6 hPa 0,0 l/m 3,2 km/h (1 Bft) NO 45 0 min 0,0 UV-I 0 W/m 4,8 km/h (1 Bft)
12.07.2020 02:30 12,5 C 12,4 C 12,5 C 84 % 1027,6 hPa 0,0 l/m 3,2 km/h (1 Bft) NO 45 0 min 0,0 UV-I 0 W/m 4,8 km/h (1 Bft)
12.07.2020 02:25 12,4 C 12,4 C 12,4 C 83 % 1027,6 hPa 0,0 l/m 1,6 km/h (1 Bft) NO 45 0 min 0,0 UV-I 0 W/m 4,8 km/h (1 Bft)
12.07.2020 02:20 12,4 C 12,4 C 12,5 C 83 % 1027,6 hPa 0,0 l/m 0,0 km/h (0 Bft) N 0 0 min 0,0 UV-I 0 W/m 0,0 km/h (0 Bft)
12.07.2020 02:15 12,5 C 12,5 C 12,6 C 83 % 1027,6 hPa 0,0 l/m 0,0 km/h (0 Bft) N 0 0 min 0,0 UV-I 0 W/m 0,0 km/h (0 Bft)
12.07.2020 02:10 12,5 C 12,5 C 12,6 C 83 % 1027,6 hPa 0,0 l/m 0,0 km/h (0 Bft) N 0 0 min 0,0 UV-I 0 W/m 0,0 km/h (0 Bft)
12.07.2020 02:05 12,6 C 12,5 C 12,6 C 82 % 1027,7 hPa 0,0 l/m 0,0 km/h (0 Bft) N 0 0 min 0,0 UV-I 0 W/m 0,0 km/h (0 Bft)
12.07.2020 02:00 12,7 C 12,6 C 12,8 C 82 % 1027,6 hPa 0,0 l/m 0,0 km/h (0 Bft) N 0 0 min 0,0 UV-I 0 W/m 0,0 km/h (0 Bft)
12.07.2020 01:55 12,8 C 12,8 C 12,9 C 81 % 1027,6 hPa 0,0 l/m 0,0 km/h (0 Bft) N 0 0 min 0,0 UV-I 0 W/m 0,0 km/h (0 Bft)
12.07.2020 01:50 12,9 C 12,9 C 13,0 C 81 % 1027,7 hPa 0,0 l/m 0,0 km/h (0 Bft) N 0 0 min 0,0 UV-I 0 W/m 0,0 km/h (0 Bft)
12.07.2020 01:45 13,1 C 13,1 C 13,2 C 81 % 1027,7 hPa 0,0 l/m 0,0 km/h (0 Bft) N 0 0 min 0,0 UV-I 0 W/m 0,0 km/h (0 Bft)
12.07.2020 01:40 13,2 C 13,2 C 13,2 C 80 % 1027,7 hPa 0,0 l/m 0,0 km/h (0 Bft) N 0 0 min 0,0 UV-I 0 W/m 0,0 km/h (0 Bft)
12.07.2020 01:35 13,2 C 13,2 C 13,3 C 80 % 1027,7 hPa 0,0 l/m 0,0 km/h (0 Bft) N 0 0 min 0,0 UV-I 0 W/m 0,0 km/h (0 Bft)
12.07.2020 01:30 13,2 C 13,2 C 13,3 C 81 % 1027,6 hPa 0,0 l/m 0,0 km/h (0 Bft) N 0 0 min 0,0 UV-I 0 W/m 0,0 km/h (0 Bft)
12.07.2020 01:25 13,3 C 13,3 C 13,4 C 80 % 1027,6 hPa 0,0 l/m 0,0 km/h (0 Bft) N 0 0 min 0,0 UV-I 0 W/m 0,0 km/h (0 Bft)
12.07.2020 01:20 13,4 C 13,4 C 13,5 C 80 % 1027,6 hPa 0,0 l/m 0,0 km/h (0 Bft) N 0 0 min 0,0 UV-I 0 W/m 0,0 km/h (0 Bft)
12.07.2020 01:15 13,4 C 13,4 C 13,5 C 80 % 1027,6 hPa 0,0 l/m 0,0 km/h (0 Bft) N 0 0 min 0,0 UV-I 0 W/m 0,0 km/h (0 Bft)
12.07.2020 01:10 13,5 C 13,4 C 13,5 C 80 % 1027,6 hPa 0,0 l/m 0,0 km/h (0 Bft) N-NO 22 0 min 0,0 UV-I 0 W/m 1,6 km/h (1 Bft)
12.07.2020 01:05 13,4 C 13,4 C 13,5 C 80 % 1027,6 hPa 0,0 l/m 1,6 km/h (1 Bft) N-NO 22 0 min 0,0 UV-I 0 W/m 4,8 km/h (1 Bft)
12.07.2020 01:00 13,4 C 13,4 C 13,5 C 80 % 1027,5 hPa 0,0 l/m 0,0 km/h (0 Bft) N 0 0 min 0,0 UV-I 0 W/m 0,0 km/h (0 Bft)
12.07.2020 00:55 13,4 C 13,4 C 13,6 C 80 % 1027,5 hPa 0,0 l/m 0,0 km/h (0 Bft) N 0 0 min 0,0 UV-I 0 W/m 0,0 km/h (0 Bft)
12.07.2020 00:50 13,5 C 13,5 C 13,7 C 80 % 1027,4 hPa 0,0 l/m 0,0 km/h (0 Bft) N 0 0 min 0,0 UV-I 0 W/m 0,0 km/h (0 Bft)
12.07.2020 00:45 13,7 C 13,7 C 13,8 C 79 % 1027,4 hPa 0,0 l/m 0,0 km/h (0 Bft) N 0 0 min 0,0 UV-I 0 W/m 0,0 km/h (0 Bft)
12.07.2020 00:40 13,8 C 13,8 C 13,9 C 79 % 1027,4 hPa 0,0 l/m 0,0 km/h (0 Bft) N 0 0 min 0,0 UV-I 0 W/m 0,0 km/h (0 Bft)
12.07.2020 00:35 13,9 C 13,9 C 14,1 C 79 % 1027,3 hPa 0,0 l/m 0,0 km/h (0 Bft) N 0 0 min 0,0 UV-I 0 W/m 0,0 km/h (0 Bft)
12.07.2020 00:30 14,1 C 14,1 C 14,2 C 78 % 1027,4 hPa 0,0 l/m 0,0 km/h (0 Bft) NO 45 0 min 0,0 UV-I 0 W/m 1,6 km/h (1 Bft)
12.07.2020 00:25 14,2 C 14,2 C 14,3 C 78 % 1027,4 hPa 0,0 l/m 0,0 km/h (0 Bft) NO 45 0 min 0,0 UV-I 0 W/m 1,6 km/h (1 Bft)
12.07.2020 00:20 14,3 C 14,3 C 14,4 C 77 % 1027,3 hPa 0,0 l/m 1,6 km/h (1 Bft) NO 45 0 min 0,0 UV-I 0 W/m 3,2 km/h (1 Bft)
12.07.2020 00:15 14,4 C 14,4 C 14,4 C 77 % 1027,3 hPa 0,0 l/m 1,6 km/h (1 Bft) N-NO 22 0 min 0,0 UV-I 0 W/m 4,8 km/h (1 Bft)
12.07.2020 00:10 14,4 C 14,4 C 14,5 C 77 % 1027,3 hPa 0,0 l/m 3,2 km/h (1 Bft) N-NO 22 0 min 0,0 UV-I 0 W/m 6,4 km/h (2 Bft)
12.07.2020 00:05 14,5 C 14,5 C 14,6 C 77 % 1027,2 hPa 0,0 l/m 3,2 km/h (1 Bft) N-NO 22 0 min 0,0 UV-I 0 W/m 4,8 km/h (1 Bft)
12.07.2020 00:00 14,6 C 14,6 C 14,6 C 76 % 1027,3 hPa 0,0 l/m 3,2 km/h (1 Bft) N-NO 22 0 min 0,0 UV-I 0 W/m 6,4 km/h (2 Bft)
_ Min-Zeit 05:50 05:50 05:40 09:35 00:05 - 00:25 - - - - - 00:35
Minimum _ 10,7 C 10,7 C 10,8 C 68 % 1027,2 hPa - 0,0 km/h (0 Bft) - - - - - 0,0 km/h (0 Bft)
_ Max-Zeit 09:35 09:30 09:35 06:20 09:30 00:00 09:30 - - 08:05 09:30 09:35 09:30
Maximum _ 16,9 C 16,8 C 16,9 C 91 % 1029,2 hPa 0,0 l/m 6,4 km/h
N (2 Bft)
- - 5 min 2,5 UV-I 489 W/m 12,9 km/h
N (3 Bft)
Durchschnitt _ 12,9 C 12,8 C 13,0 C 84 % 1027,9 hPa #0,0 l/m 1,3 km/h (1 Bft) N-NO - #1:35 h 1,4 UV-I 187 W/m 3,4 km/h (1 Bft)